Terminal Aerodrome Forecast
Issued by NWS

Home | Current Version | Previous Version | Text Only | Print | Product List | Glossary On
Versions: 1 2 3 4 5 6 7 8 9 10 11 12 13 14 15 16 17 18 19
000
FTUS44 KLZK 200530
TAFLLQ
TAF
KLLQ 200530Z 2006/2106 12006KT P6SM BKN250
      TEMPO 2010/2014 5SM BR
     FM201600 15008KT P6SM BKN050 OVC100
     FM202000 18010KT P6SM VCTS BKN025 OVC050CB=

USA.gov is the U.S. government's official web portal to all federal, state and local government web resources and services.